createdAt,value
2023-04-20T00:00:01.550Z,0
2023-04-20T00:01:01.547Z,0
2023-04-20T00:02:01.659Z,0
2023-04-20T00:03:01.720Z,0
2023-04-20T00:04:01.705Z,0
2023-04-20T00:05:01.577Z,0
2023-04-20T00:06:01.548Z,0
2023-04-20T00:07:01.568Z,0
2023-04-20T00:08:01.567Z,0
2023-04-20T00:09:01.546Z,0
2023-04-20T00:10:01.553Z,0
2023-04-20T00:11:01.574Z,0
2023-04-20T00:12:01.570Z,0
2023-04-20T00:13:01.568Z,0
2023-04-20T00:14:01.562Z,0
2023-04-20T00:15:01.565Z,0
2023-04-20T00:16:01.565Z,0
2023-04-20T00:17:01.590Z,0
2023-04-20T00:18:01.599Z,0
2023-04-20T00:19:01.560Z,0
2023-04-20T00:20:01.557Z,0
2023-04-20T00:21:01.567Z,0
2023-04-20T00:22:01.559Z,0
2023-04-20T00:23:01.576Z,0
2023-04-20T00:24:01.559Z,0
2023-04-20T00:25:01.554Z,0
2023-04-20T00:26:01.566Z,0
2023-04-20T00:27:01.564Z,0
2023-04-20T00:28:01.570Z,0
2023-04-20T00:29:01.578Z,0
2023-04-20T00:30:01.546Z,0
2023-04-20T00:31:01.616Z,0
2023-04-20T00:32:01.572Z,0
2023-04-20T00:33:01.693Z,0
2023-04-20T00:34:01.556Z,0
2023-04-20T00:35:01.561Z,0
2023-04-20T00:36:01.605Z,0
2023-04-20T00:37:01.560Z,0
2023-04-20T00:38:01.567Z,0
2023-04-20T00:39:01.543Z,0
2023-04-20T00:40:01.568Z,0
2023-04-20T00:41:01.555Z,0
2023-04-20T00:42:01.545Z,0
2023-04-20T00:43:01.578Z,0
2023-04-20T00:44:01.582Z,0
2023-04-20T00:45:01.550Z,0
2023-04-20T00:46:01.581Z,0
2023-04-20T00:47:01.570Z,0
2023-04-20T00:48:01.599Z,0
2023-04-20T00:49:01.557Z,0
2023-04-20T00:50:01.556Z,0
2023-04-20T00:51:01.553Z,0
2023-04-20T00:52:01.557Z,0
2023-04-20T00:53:01.551Z,0
2023-04-20T00:54:01.557Z,0
2023-04-20T00:55:01.549Z,0
2023-04-20T00:56:01.556Z,0
2023-04-20T00:57:01.554Z,0
2023-04-20T00:58:01.576Z,0
2023-04-20T00:59:01.602Z,0
2023-04-20T01:00:01.553Z,0
2023-04-20T01:01:01.541Z,0
2023-04-20T01:02:01.673Z,0
2023-04-20T01:03:01.726Z,0
2023-04-20T01:04:01.598Z,0
2023-04-20T01:05:01.548Z,0
2023-04-20T01:06:01.551Z,0
2023-04-20T01:07:01.561Z,0
2023-04-20T01:08:01.561Z,0
2023-04-20T01:09:01.554Z,0
2023-04-20T01:10:01.564Z,0
2023-04-20T01:11:01.552Z,0
2023-04-20T01:12:01.555Z,0
2023-04-20T01:13:01.574Z,0
2023-04-20T01:14:01.582Z,0
2023-04-20T01:15:01.571Z,0
2023-04-20T01:16:01.591Z,0
2023-04-20T01:17:01.544Z,0
2023-04-20T01:18:01.680Z,0
2023-04-20T01:19:01.549Z,0
2023-04-20T01:20:01.562Z,0
2023-04-20T01:21:01.577Z,0
2023-04-20T01:22:01.547Z,0
2023-04-20T01:23:01.563Z,0
2023-04-20T01:24:01.561Z,0
2023-04-20T01:25:01.550Z,0
2023-04-20T01:26:01.550Z,0
2023-04-20T01:27:01.559Z,0
2023-04-20T01:28:01.564Z,0
2023-04-20T01:29:01.564Z,0
2023-04-20T01:30:01.565Z,0
2023-04-20T01:31:01.599Z,0
2023-04-20T01:32:01.572Z,0
2023-04-20T01:33:01.613Z,0
2023-04-20T01:34:01.556Z,0
2023-04-20T01:35:01.591Z,0
2023-04-20T01:36:01.550Z,0
2023-04-20T01:37:01.551Z,0
2023-04-20T01:38:01.562Z,0
2023-04-20T01:39:01.568Z,0
2023-04-20T01:40:01.700Z,0
2023-04-20T01:41:01.554Z,0
2023-04-20T01:42:01.548Z,0
2023-04-20T01:43:01.576Z,0
2023-04-20T01:44:01.595Z,0
2023-04-20T01:45:01.583Z,0
2023-04-20T01:46:01.553Z,0
2023-04-20T01:47:01.646Z,0
2023-04-20T01:48:01.620Z,0
2023-04-20T01:49:01.552Z,0
2023-04-20T01:50:01.571Z,0
2023-04-20T01:51:01.560Z,0
2023-04-20T01:52:01.555Z,0
2023-04-20T01:53:01.570Z,0
2023-04-20T01:54:01.554Z,0
2023-04-20T01:55:01.552Z,0
2023-04-20T01:56:01.554Z,0
2023-04-20T01:57:01.564Z,0
2023-04-20T01:58:01.745Z,0
2023-04-20T01:59:01.573Z,0
2023-04-20T02:00:01.563Z,0
2023-04-20T02:01:01.580Z,0
2023-04-20T02:02:01.695Z,0
2023-04-20T02:03:01.723Z,0
2023-04-20T02:04:01.666Z,0
2023-04-20T02:05:01.567Z,0
2023-04-20T02:06:01.553Z,0
2023-04-20T02:07:01.554Z,0
2023-04-20T02:08:01.581Z,0
2023-04-20T02:09:01.557Z,0
2023-04-20T02:10:01.553Z,0
2023-04-20T02:11:01.573Z,0
2023-04-20T02:12:01.555Z,0
2023-04-20T02:13:01.555Z,0
2023-04-20T02:14:01.578Z,0
2023-04-20T02:15:01.569Z,0
2023-04-20T02:16:01.572Z,0
2023-04-20T02:17:01.592Z,0
2023-04-20T02:18:01.708Z,0
2023-04-20T02:19:01.561Z,0
2023-04-20T02:20:01.564Z,0
2023-04-20T02:21:01.558Z,0
2023-04-20T02:22:01.543Z,0
2023-04-20T02:23:01.565Z,0
2023-04-20T02:24:01.554Z,0
2023-04-20T02:25:01.550Z,0
2023-04-20T02:26:01.554Z,0
2023-04-20T02:27:01.546Z,0
2023-04-20T02:28:01.573Z,0
2023-04-20T02:29:01.567Z,0
2023-04-20T02:30:01.554Z,0
2023-04-20T02:31:01.610Z,0
2023-04-20T02:32:01.550Z,0
2023-04-20T02:33:01.650Z,0
2023-04-20T02:34:01.545Z,0
2023-04-20T02:35:01.561Z,0
2023-04-20T02:36:01.560Z,0
2023-04-20T02:37:01.561Z,0
2023-04-20T02:38:01.563Z,0
2023-04-20T02:39:01.552Z,0
2023-04-20T02:40:01.557Z,0
2023-04-20T02:41:01.582Z,0
2023-04-20T02:42:01.548Z,0
2023-04-20T02:43:01.561Z,0
2023-04-20T02:44:01.572Z,0
2023-04-20T02:45:01.534Z,0
2023-04-20T02:46:01.685Z,0
2023-04-20T02:47:01.548Z,0
2023-04-20T02:48:01.584Z,0
2023-04-20T02:49:01.553Z,0
2023-04-20T02:50:01.564Z,0
2023-04-20T02:51:01.558Z,0
2023-04-20T02:52:01.555Z,0
2023-04-20T02:53:01.589Z,0
2023-04-20T02:54:01.553Z,0
2023-04-20T02:55:01.577Z,0
2023-04-20T02:56:01.560Z,0
2023-04-20T02:57:01.588Z,0
2023-04-20T02:58:01.601Z,0
2023-04-20T02:59:01.584Z,0
2023-04-20T03:00:01.561Z,0
2023-04-20T03:01:01.579Z,0
2023-04-20T03:02:01.634Z,0
2023-04-20T03:03:01.691Z,0
2023-04-20T03:04:01.829Z,0
2023-04-20T03:05:01.563Z,0
2023-04-20T03:06:01.578Z,0
2023-04-20T03:07:01.550Z,0
2023-04-20T03:08:01.571Z,0
2023-04-20T03:09:01.567Z,0
2023-04-20T03:10:01.561Z,0
2023-04-20T03:11:01.557Z,0
2023-04-20T03:12:01.555Z,0
2023-04-20T03:13:01.577Z,0
2023-04-20T03:14:01.570Z,0
2023-04-20T03:15:01.559Z,0
2023-04-20T03:16:01.590Z,0
2023-04-20T03:17:01.558Z,0
2023-04-20T03:18:01.599Z,0
2023-04-20T03:19:01.562Z,0
2023-04-20T03:20:01.565Z,0
2023-04-20T03:21:01.569Z,0
2023-04-20T03:22:01.571Z,0
2023-04-20T03:23:01.565Z,0
2023-04-20T03:24:01.569Z,0
2023-04-20T03:25:01.562Z,0
2023-04-20T03:26:01.556Z,0
2023-04-20T03:27:01.564Z,0
2023-04-20T03:28:01.566Z,0
2023-04-20T03:29:01.587Z,0
2023-04-20T03:30:01.628Z,0
2023-04-20T03:31:01.558Z,0
2023-04-20T03:32:01.579Z,0
2023-04-20T03:33:01.608Z,0
2023-04-20T03:34:01.560Z,0
2023-04-20T03:35:01.574Z,0
2023-04-20T03:36:01.558Z,0
2023-04-20T03:37:01.553Z,0
2023-04-20T03:38:01.595Z,0
2023-04-20T03:39:01.561Z,0
2023-04-20T03:40:01.551Z,0
2023-04-20T03:41:01.547Z,0
2023-04-20T03:42:01.557Z,0
2023-04-20T03:43:01.570Z,0
2023-04-20T03:44:01.579Z,0
2023-04-20T03:45:01.563Z,0
2023-04-20T03:46:01.596Z,0
2023-04-20T03:47:01.611Z,0
2023-04-20T03:48:01.641Z,0
2023-04-20T03:49:01.564Z,0
2023-04-20T03:50:01.578Z,0
2023-04-20T03:51:01.552Z,0
2023-04-20T03:52:01.557Z,0
2023-04-20T03:53:01.575Z,0
2023-04-20T03:54:01.556Z,0
2023-04-20T03:55:01.543Z,0
2023-04-20T03:56:01.567Z,0
2023-04-20T03:57:01.558Z,0
2023-04-20T03:58:01.576Z,0.01
2023-04-20T03:59:01.588Z,0.01
2023-04-20T04:00:01.579Z,0.01
2023-04-20T04:01:01.549Z,0.01
2023-04-20T04:02:01.747Z,0.01
2023-04-20T04:03:01.719Z,0.01
2023-04-20T04:04:01.727Z,0.01
2023-04-20T04:05:01.728Z,0.01
2023-04-20T04:06:01.553Z,0.01
2023-04-20T04:07:01.557Z,0.02
2023-04-20T04:08:01.558Z,0.02
2023-04-20T04:09:01.536Z,0.02
2023-04-20T04:10:01.560Z,0.02
2023-04-20T04:11:01.550Z,0.02
2023-04-20T04:12:01.568Z,0.03
2023-04-20T04:13:01.570Z,0.03
2023-04-20T04:14:01.572Z,0.03
2023-04-20T04:15:01.588Z,0.03
2023-04-20T04:16:01.551Z,0.03
2023-04-20T04:17:01.617Z,0.04
2023-04-20T04:18:01.641Z,0.04
2023-04-20T04:19:01.548Z,0.05
2023-04-20T04:20:01.557Z,0.05
2023-04-20T04:21:01.562Z,0.05
2023-04-20T04:22:01.566Z,0.06
2023-04-20T04:23:01.572Z,0.06
2023-04-20T04:24:01.551Z,0.07
2023-04-20T04:25:01.540Z,0.07
2023-04-20T04:26:01.565Z,0.07
2023-04-20T04:27:01.554Z,0.07
2023-04-20T04:28:01.566Z,0.07
2023-04-20T04:29:01.567Z,0.07
2023-04-20T04:30:01.553Z,0.07
2023-04-20T04:31:01.698Z,0.07
2023-04-20T04:32:01.563Z,0.07
2023-04-20T04:33:01.653Z,0.08
2023-04-20T04:34:01.573Z,0.08
2023-04-20T04:35:01.570Z,0.08
2023-04-20T04:36:01.641Z,0.08
2023-04-20T04:37:01.552Z,0.08
2023-04-20T04:38:01.568Z,0.08
2023-04-20T04:39:01.559Z,0.08
2023-04-20T04:40:01.562Z,0.09
2023-04-20T04:41:01.550Z,0.09
2023-04-20T04:42:03.622Z,0.09
2023-04-20T04:43:01.559Z,0.09
2023-04-20T04:44:01.571Z,0.09
2023-04-20T04:45:01.572Z,0.09
2023-04-20T04:46:01.560Z,0.1
2023-04-20T04:47:01.559Z,0.1
2023-04-20T04:48:01.601Z,0.09
2023-04-20T04:49:01.566Z,0.09
2023-04-20T04:50:01.560Z,0.09
2023-04-20T04:51:01.556Z,0.09
2023-04-20T04:52:01.556Z,0.09
2023-04-20T04:53:01.568Z,0.09
2023-04-20T04:54:01.562Z,0.1
2023-04-20T04:55:01.558Z,0.1
2023-04-20T04:56:01.554Z,0.11
2023-04-20T04:57:01.569Z,0.11
2023-04-20T04:58:01.597Z,0.12
2023-04-20T04:59:01.575Z,0.12
2023-04-20T05:00:01.557Z,0.13
2023-04-20T05:01:01.553Z,0.13
2023-04-20T05:02:01.662Z,0.13
2023-04-20T05:03:01.698Z,0.13
2023-04-20T05:04:01.747Z,0.13
2023-04-20T05:05:01.560Z,0.12
2023-04-20T05:06:01.570Z,0.12
2023-04-20T05:07:01.556Z,0.12
2023-04-20T05:08:01.574Z,0.11
2023-04-20T05:09:01.548Z,0.11
2023-04-20T05:10:01.559Z,0.11
2023-04-20T05:11:01.558Z,0.11
2023-04-20T05:12:01.557Z,0.11
2023-04-20T05:13:01.567Z,0.11
2023-04-20T05:14:01.571Z,0.12
2023-04-20T05:15:01.564Z,0.12
2023-04-20T05:16:01.581Z,0.13
2023-04-20T05:17:01.573Z,0.12
2023-04-20T05:18:01.637Z,0.11
2023-04-20T05:19:01.559Z,0.11
2023-04-20T05:20:01.607Z,0.1
2023-04-20T05:21:01.552Z,0.1
2023-04-20T05:22:01.557Z,0.1
2023-04-20T05:23:01.575Z,0.1
2023-04-20T05:24:01.552Z,0.11
2023-04-20T05:25:01.560Z,0.12
2023-04-20T05:26:01.560Z,0.12
2023-04-20T05:27:01.560Z,0.13
2023-04-20T05:28:01.571Z,0.13
2023-04-20T05:29:01.565Z,0.14
2023-04-20T05:30:16.678Z,0.15
2023-04-20T05:31:01.552Z,0.15
2023-04-20T05:32:01.747Z,0.16
2023-04-20T05:33:01.596Z,0.17
2023-04-20T05:34:01.552Z,0.19
2023-04-20T05:35:01.550Z,0.21
2023-04-20T05:36:01.551Z,0.26
2023-04-20T05:37:01.553Z,0.3
2023-04-20T05:38:01.555Z,0.36
2023-04-20T05:39:01.555Z,0.38
2023-04-20T05:40:01.550Z,0.39
2023-04-20T05:41:01.558Z,0.37
2023-04-20T05:42:01.559Z,0.35
2023-04-20T05:43:01.602Z,0.35
2023-04-20T05:44:01.557Z,0.29
2023-04-20T05:45:01.570Z,0.26
2023-04-20T05:46:01.597Z,0.24
2023-04-20T05:47:01.573Z,0.24
2023-04-20T05:48:01.630Z,0.23
2023-04-20T05:49:01.546Z,0.22
2023-04-20T05:50:01.559Z,0.22
2023-04-20T05:51:01.551Z,0.23
2023-04-20T05:52:01.561Z,0.23
2023-04-20T05:53:01.568Z,0.23
2023-04-20T05:54:01.555Z,0.25
2023-04-20T05:55:01.560Z,0.26
2023-04-20T05:56:01.554Z,0.26
2023-04-20T05:57:01.554Z,0.27
2023-04-20T05:58:01.629Z,0.27
2023-04-20T05:59:01.564Z,0.27
2023-04-20T06:00:01.559Z,0.27
2023-04-20T06:01:01.557Z,0.28
2023-04-20T06:02:01.707Z,0.3
2023-04-20T06:03:01.759Z,0.31
2023-04-20T06:04:01.756Z,0.31
2023-04-20T06:05:01.717Z,0.3
2023-04-20T06:06:01.558Z,0.3
2023-04-20T06:07:01.564Z,0.28
2023-04-20T06:08:01.563Z,0.27
2023-04-20T06:09:01.563Z,0.27
2023-04-20T06:10:01.551Z,0.27
2023-04-20T06:11:01.563Z,0.28
2023-04-20T06:12:01.562Z,0.28
2023-04-20T06:13:01.593Z,0.28
2023-04-20T06:14:01.572Z,0.28
2023-04-20T06:15:01.562Z,0.28
2023-04-20T06:16:01.622Z,0.29
2023-04-20T06:17:01.550Z,0.29
2023-04-20T06:18:01.661Z,0.28
2023-04-20T06:19:01.563Z,0.28
2023-04-20T06:20:01.569Z,0.28
2023-04-20T06:21:01.569Z,0.27
2023-04-20T06:22:01.567Z,0.25
2023-04-20T06:23:01.594Z,0.25
2023-04-20T06:24:01.556Z,0.25
2023-04-20T06:25:01.562Z,0.26
2023-04-20T06:26:01.553Z,0.26
2023-04-20T06:27:01.556Z,0.27
2023-04-20T06:28:01.572Z,0.27
2023-04-20T06:29:01.595Z,0.28
2023-04-20T06:30:01.565Z,0.28
2023-04-20T06:31:01.630Z,0.29
2023-04-20T06:32:01.568Z,0.29
2023-04-20T06:33:01.647Z,0.3
2023-04-20T06:34:01.557Z,0.31
2023-04-20T06:35:01.565Z,0.31
2023-04-20T06:36:01.552Z,0.31
2023-04-20T06:37:01.548Z,0.32
2023-04-20T06:38:01.569Z,0.34
2023-04-20T06:39:01.546Z,0.34
2023-04-20T06:40:01.555Z,0.34
2023-04-20T06:41:01.558Z,0.32
2023-04-20T06:42:01.557Z,0.31
2023-04-20T06:43:01.571Z,0.31
2023-04-20T06:44:01.566Z,0.3
2023-04-20T06:45:01.558Z,0.3
2023-04-20T06:46:01.564Z,0.29
2023-04-20T06:47:01.652Z,0.3
2023-04-20T06:48:01.629Z,0.31
2023-04-20T06:49:01.570Z,0.32
2023-04-20T06:50:01.562Z,0.34
2023-04-20T06:51:01.548Z,0.36
2023-04-20T06:52:01.567Z,0.35
2023-04-20T06:53:01.559Z,0.35
2023-04-20T06:54:01.553Z,0.36
2023-04-20T06:55:01.568Z,0.38
2023-04-20T06:56:01.566Z,0.4
2023-04-20T06:57:01.559Z,0.43
2023-04-20T06:58:01.594Z,0.44
2023-04-20T06:59:01.568Z,0.44
2023-04-20T07:00:01.576Z,0.45
2023-04-20T07:01:01.573Z,0.45
2023-04-20T07:02:01.676Z,0.45
2023-04-20T07:03:01.713Z,0.46
2023-04-20T07:04:01.768Z,0.45
2023-04-20T07:05:01.853Z,0.42
2023-04-20T07:06:01.570Z,0.39
2023-04-20T07:07:01.557Z,0.36
2023-04-20T07:08:01.562Z,0.34
2023-04-20T07:09:01.549Z,0.35
2023-04-20T07:10:01.552Z,0.35
2023-04-20T07:11:01.562Z,0.37
2023-04-20T07:12:01.560Z,0.37
2023-04-20T07:13:01.573Z,0.38
2023-04-20T07:14:01.574Z,0.4
2023-04-20T07:15:01.557Z,0.41
2023-04-20T07:16:01.630Z,0.42
2023-04-20T07:17:01.555Z,0.41
2023-04-20T07:18:01.582Z,0.41
2023-04-20T07:19:01.556Z,0.4
2023-04-20T07:20:01.562Z,0.38
2023-04-20T07:21:01.572Z,0.36
2023-04-20T07:22:01.546Z,0.35
2023-04-20T07:23:01.575Z,0.36
2023-04-20T07:24:01.551Z,0.35
2023-04-20T07:25:01.560Z,0.35
2023-04-20T07:26:01.558Z,0.35
2023-04-20T07:27:01.553Z,0.37
2023-04-20T07:28:01.569Z,0.39
2023-04-20T07:29:01.568Z,0.45
2023-04-20T07:30:01.545Z,0.49
2023-04-20T07:31:01.551Z,0.48
2023-04-20T07:32:01.619Z,0.48
2023-04-20T07:33:01.576Z,0.44
2023-04-20T07:34:01.555Z,0.42
2023-04-20T07:35:01.555Z,0.38
2023-04-20T07:36:01.552Z,0.37
2023-04-20T07:37:01.559Z,0.41
2023-04-20T07:38:01.576Z,0.43
2023-04-20T07:39:01.545Z,0.43
2023-04-20T07:40:01.585Z,0.4
2023-04-20T07:41:01.555Z,0.38
2023-04-20T07:42:01.570Z,0.37
2023-04-20T07:43:01.578Z,0.37
2023-04-20T07:44:01.574Z,0.39
2023-04-20T07:45:01.567Z,0.41
2023-04-20T07:46:01.657Z,0.4
2023-04-20T07:47:02.856Z,0.44
2023-04-20T07:48:01.674Z,0.46
2023-04-20T07:49:01.556Z,0.45
2023-04-20T07:50:01.564Z,0.5
2023-04-20T07:51:01.551Z,0.53
2023-04-20T07:52:15.213Z,0.57
2023-04-20T07:53:01.574Z,0.6
2023-04-20T07:54:01.554Z,0.65
2023-04-20T07:55:01.553Z,0.71
2023-04-20T07:56:01.549Z,0.74
2023-04-20T07:57:01.552Z,0.72
2023-04-20T07:58:01.578Z,0.67
2023-04-20T07:59:01.570Z,0.68
2023-04-20T08:00:01.573Z,0.71
2023-04-20T08:01:01.604Z,0.69
2023-04-20T08:02:01.730Z,0.66
2023-04-20T08:03:01.709Z,0.63
2023-04-20T08:04:02.066Z,0.6
2023-04-20T08:05:01.750Z,0.57
2023-04-20T08:06:01.695Z,0.54
2023-04-20T08:07:01.552Z,0.55
2023-04-20T08:08:01.568Z,0.6
2023-04-20T08:09:01.554Z,0.63
2023-04-20T08:10:01.544Z,0.61
2023-04-20T08:11:01.580Z,0.59
2023-04-20T08:12:01.561Z,0.61
2023-04-20T08:13:01.580Z,0.67
2023-04-20T08:14:01.565Z,0.75
2023-04-20T08:15:01.556Z,0.8
2023-04-20T08:16:01.590Z,0.78
2023-04-20T08:17:01.667Z,0.77
2023-04-20T08:18:01.615Z,0.86
2023-04-20T08:19:01.576Z,0.81
2023-04-20T08:20:01.554Z,0.83
2023-04-20T08:21:01.543Z,0.82
2023-04-20T08:22:02.293Z,0.76
2023-04-20T08:23:01.571Z,0.7
2023-04-20T08:24:01.579Z,0.67
2023-04-20T08:25:01.558Z,0.67
2023-04-20T08:26:01.550Z,0.69
2023-04-20T08:27:01.558Z,0.75
2023-04-20T08:28:02.598Z,0.9
2023-04-20T08:29:01.569Z,0.91
2023-04-20T08:30:01.558Z,0.81
2023-04-20T08:31:01.615Z,0.8
2023-04-20T08:32:01.636Z,0.84
2023-04-20T08:33:01.616Z,0.92
2023-04-20T08:34:01.564Z,0.98
2023-04-20T08:35:01.582Z,0.88
2023-04-20T08:36:01.561Z,0.84
2023-04-20T08:37:01.552Z,0.87
2023-04-20T08:38:01.660Z,0.88
2023-04-20T08:39:01.556Z,0.83
2023-04-20T08:40:01.601Z,0.81
2023-04-20T08:41:01.567Z,0.83
2023-04-20T08:42:01.554Z,0.86
2023-04-20T08:43:01.586Z,0.86
2023-04-20T08:44:01.570Z,0.8
2023-04-20T08:45:01.572Z,0.75
2023-04-20T08:46:01.988Z,0.68
2023-04-20T08:47:01.577Z,0.67
2023-04-20T08:48:01.602Z,0.7
2023-04-20T08:49:01.553Z,0.64
2023-04-20T08:50:01.556Z,0.61
2023-04-20T08:51:01.555Z,0.64
2023-04-20T08:52:01.550Z,0.65
2023-04-20T08:53:01.572Z,0.65
2023-04-20T08:54:01.553Z,0.64
2023-04-20T08:55:01.562Z,0.64
2023-04-20T08:56:01.576Z,0.63
2023-04-20T08:57:01.561Z,0.68
2023-04-20T08:58:01.582Z,0.72
2023-04-20T08:59:01.570Z,0.75
2023-04-20T09:00:01.563Z,0.86
2023-04-20T09:01:01.682Z,0.97
2023-04-20T09:02:01.589Z,1.02
2023-04-20T09:03:01.854Z,1.09
2023-04-20T09:04:01.663Z,0.97
2023-04-20T09:05:01.732Z,0.87
2023-04-20T09:06:01.559Z,0.97
2023-04-20T09:07:01.550Z,0.9
2023-04-20T09:08:01.566Z,0.87
2023-04-20T09:09:01.560Z,0.94
2023-04-20T09:10:01.551Z,0.97
2023-04-20T09:11:01.554Z,0.99
2023-04-20T09:12:01.553Z,1.01
2023-04-20T09:13:01.561Z,1.01
2023-04-20T09:14:01.570Z,1.04
2023-04-20T09:15:01.599Z,1.07
2023-04-20T09:16:01.615Z,1.1
2023-04-20T09:17:01.557Z,1.09
2023-04-20T09:18:01.604Z,1.1
2023-04-20T09:19:01.553Z,1.17
2023-04-20T09:20:01.565Z,1.17
2023-04-20T09:21:01.554Z,1.12
2023-04-20T09:22:01.556Z,1.09
2023-04-20T09:23:01.582Z,1.11
2023-04-20T09:24:01.565Z,1.17
2023-04-20T09:25:01.559Z,1.17
2023-04-20T09:26:01.558Z,1.19
2023-04-20T09:27:01.550Z,1.18
2023-04-20T09:28:01.562Z,1.19
2023-04-20T09:29:01.564Z,1.23
2023-04-20T09:30:01.592Z,1.21
2023-04-20T09:31:01.552Z,1.26
2023-04-20T09:32:01.621Z,1.29
2023-04-20T09:33:01.648Z,1.32
2023-04-20T09:34:01.556Z,1.36
2023-04-20T09:35:01.546Z,1.36
2023-04-20T09:36:01.554Z,1.39
2023-04-20T09:37:01.544Z,1.34
2023-04-20T09:38:01.577Z,1.29
2023-04-20T09:39:01.556Z,1.28
2023-04-20T09:40:01.551Z,1.27
2023-04-20T09:41:01.551Z,1.22
2023-04-20T09:42:01.549Z,1.2
2023-04-20T09:43:01.578Z,1.2
2023-04-20T09:44:01.568Z,1.27
2023-04-20T09:45:01.571Z,1.33
2023-04-20T09:46:01.700Z,1.39
2023-04-20T09:47:01.552Z,1.4
2023-04-20T09:48:01.635Z,1.37
2023-04-20T09:49:01.543Z,1.47
2023-04-20T09:50:14.618Z,1.44
2023-04-20T09:51:01.560Z,1.44
2023-04-20T09:52:01.551Z,1.57
2023-04-20T09:53:01.558Z,1.64
2023-04-20T09:54:01.559Z,1.62
2023-04-20T09:55:01.548Z,1.48
2023-04-20T09:56:01.552Z,1.43
2023-04-20T09:57:01.545Z,1.47
2023-04-20T09:58:01.557Z,1.47
2023-04-20T09:59:01.579Z,1.42
2023-04-20T10:00:01.565Z,1.36
2023-04-20T10:01:01.547Z,1.35
2023-04-20T10:02:01.638Z,1.35
2023-04-20T10:03:01.656Z,1.39
2023-04-20T10:04:01.821Z,1.38
2023-04-20T10:05:01.546Z,1.44
2023-04-20T10:06:01.563Z,1.42
2023-04-20T10:07:01.559Z,1.36
2023-04-20T10:08:01.562Z,1.28
2023-04-20T10:09:01.570Z,1.24
2023-04-20T10:10:01.549Z,1.21
2023-04-20T10:11:01.557Z,1.21
2023-04-20T10:12:01.550Z,1.19
2023-04-20T10:13:01.555Z,1.17
2023-04-20T10:14:01.567Z,1.15
2023-04-20T10:15:01.544Z,1.13
2023-04-20T10:16:01.595Z,1.19
2023-04-20T10:17:01.844Z,1.23
2023-04-20T10:18:01.637Z,1.29
2023-04-20T10:19:01.563Z,1.31
2023-04-20T10:20:01.583Z,1.31
2023-04-20T10:21:01.552Z,1.31
2023-04-20T10:22:01.549Z,1.26
2023-04-20T10:23:01.570Z,1.17
2023-04-20T10:24:01.559Z,1.13
2023-04-20T10:25:01.553Z,1.08
2023-04-20T10:26:01.559Z,1.07
2023-04-20T10:27:01.542Z,1.06
2023-04-20T10:28:01.613Z,1.08
2023-04-20T10:29:01.560Z,1.11
2023-04-20T10:30:01.547Z,1.11
2023-04-20T10:31:01.630Z,1.16
2023-04-20T10:32:01.552Z,1.12
2023-04-20T10:33:01.586Z,1.08
2023-04-20T10:34:01.555Z,1.05
2023-04-20T10:35:01.556Z,1.05
2023-04-20T10:36:01.547Z,1.09
2023-04-20T10:37:01.559Z,1.15
2023-04-20T10:38:01.578Z,1.1
2023-04-20T10:39:01.556Z,1.11
2023-04-20T10:40:01.549Z,1.17
2023-04-20T10:41:01.549Z,1.26
2023-04-20T10:42:01.594Z,1.32
2023-04-20T10:43:01.570Z,1.32
2023-04-20T10:44:01.562Z,1.31
2023-04-20T10:45:01.580Z,1.24
2023-04-20T10:46:01.567Z,1.25
2023-04-20T10:47:01.548Z,1.22
2023-04-20T10:48:01.595Z,1.3
2023-04-20T10:49:01.556Z,1.38
2023-04-20T10:50:01.555Z,1.44
2023-04-20T10:51:01.550Z,1.36
2023-04-20T10:52:01.564Z,1.3
2023-04-20T10:53:01.563Z,1.34
2023-04-20T10:54:01.575Z,1.44
2023-04-20T10:55:01.564Z,1.43
2023-04-20T10:56:01.562Z,1.28
2023-04-20T10:57:01.551Z,1.22
2023-04-20T10:58:01.577Z,1.27
2023-04-20T10:59:02.403Z,1.43
2023-04-20T11:00:01.555Z,1.49
2023-04-20T11:01:01.542Z,1.38
2023-04-20T11:02:01.693Z,1.38
2023-04-20T11:03:01.642Z,1.45
2023-04-20T11:04:01.606Z,1.54
2023-04-20T11:05:01.592Z,1.55
2023-04-20T11:06:01.719Z,1.44
2023-04-20T11:07:01.555Z,1.48
2023-04-20T11:08:01.568Z,1.54
2023-04-20T11:09:01.562Z,1.65
2023-04-20T11:10:01.570Z,1.87
2023-04-20T11:11:01.545Z,2.02
2023-04-20T11:12:01.554Z,2.11
2023-04-20T11:13:01.560Z,2.3
2023-04-20T11:14:01.573Z,2.56
2023-04-20T11:15:01.552Z,3.42
2023-04-20T11:16:01.565Z,3.42
2023-04-20T11:17:01.599Z,5.63
2023-04-20T11:18:01.596Z,3.44
2023-04-20T11:19:01.557Z,3.28
2023-04-20T11:20:01.545Z,3.29
2023-04-20T11:21:01.557Z,3.09
2023-04-20T11:22:01.559Z,3.35
2023-04-20T11:23:01.570Z,3.74
2023-04-20T11:24:01.569Z,2.63
2023-04-20T11:25:01.640Z,2.48
2023-04-20T11:26:01.566Z,2.33
2023-04-20T11:27:01.548Z,2.21
2023-04-20T11:28:01.568Z,2.32
2023-04-20T11:29:01.570Z,2.5
2023-04-20T11:30:01.566Z,2.74
2023-04-20T11:31:01.567Z,2.91
2023-04-20T11:32:01.704Z,3.12
2023-04-20T11:33:01.736Z,2.93
2023-04-20T11:34:01.561Z,2.44
2023-04-20T11:35:06.632Z,2.24
2023-04-20T11:36:01.553Z,2.23
2023-04-20T11:37:01.547Z,2.39
2023-04-20T11:38:01.566Z,2.71
2023-04-20T11:39:01.544Z,2.91
2023-04-20T11:40:01.552Z,3.01
2023-04-20T11:41:01.559Z,2.9
2023-04-20T11:42:01.581Z,2.4
2023-04-20T11:43:01.560Z,2.4
2023-04-20T11:44:01.573Z,2.94
2023-04-20T11:45:01.540Z,2.33
2023-04-20T11:46:01.585Z,3.54
2023-04-20T11:47:01.548Z,2.97
2023-04-20T11:48:01.611Z,2.8
2023-04-20T11:49:01.542Z,3.04
2023-04-20T11:50:01.565Z,2.87
2023-04-20T11:51:01.560Z,2.77
2023-04-20T11:52:01.567Z,4.35
2023-04-20T11:53:01.561Z,5.93
2023-04-20T11:54:01.554Z,4.99
2023-04-20T11:55:01.559Z,4.3
2023-04-20T11:56:01.554Z,8.74
2023-04-20T11:57:01.552Z,7.99
2023-04-20T11:58:01.565Z,9.92
2023-04-20T11:59:01.571Z,10.36
2023-04-20T12:00:01.582Z,9.77
2023-04-20T12:01:01.551Z,6.42
2023-04-20T12:02:01.649Z,6.21
2023-04-20T12:03:01.718Z,4.96
2023-04-20T12:04:01.816Z,6.33
2023-04-20T12:05:01.642Z,6.15
2023-04-20T12:06:01.560Z,4.91
2023-04-20T12:07:01.564Z,5.62
2023-04-20T12:08:01.567Z,3.72
2023-04-20T12:09:01.559Z,9.65
2023-04-20T12:10:01.578Z,8.04
2023-04-20T12:11:01.562Z,6.14
2023-04-20T12:12:01.553Z,8.81
2023-04-20T12:13:01.563Z,5.83
2023-04-20T12:14:01.595Z,4.45
2023-04-20T12:15:01.563Z,3.16
2023-04-20T12:16:01.622Z,2.35
2023-04-20T12:17:01.556Z,2.14
2023-04-20T12:18:01.605Z,2.26
2023-04-20T12:19:01.556Z,2.36
2023-04-20T12:20:01.549Z,2.32
2023-04-20T12:21:01.549Z,1.98
2023-04-20T12:22:01.571Z,1.79
2023-04-20T12:23:01.562Z,1.75
2023-04-20T12:24:01.550Z,1.95
2023-04-20T12:25:01.545Z,2.45
2023-04-20T12:26:01.583Z,2.54
2023-04-20T12:27:01.544Z,2.23
2023-04-20T12:28:01.573Z,2.3
2023-04-20T12:29:01.565Z,2.75
2023-04-20T12:30:01.549Z,2.77
2023-04-20T12:31:01.598Z,2.75
2023-04-20T12:32:01.608Z,4.38
2023-04-20T12:33:01.655Z,6.25
2023-04-20T12:34:01.562Z,3.09
2023-04-20T12:35:01.562Z,3.93
2023-04-20T12:36:01.552Z,4.21
2023-04-20T12:37:01.591Z,6.81
2023-04-20T12:38:01.559Z,6.07
2023-04-20T12:39:01.553Z,3.46
2023-04-20T12:40:01.552Z,5.99
2023-04-20T12:41:01.545Z,8.06
2023-04-20T12:42:01.552Z,6.01
2023-04-20T12:43:01.582Z,6.01
2023-04-20T12:44:15.333Z,3.03
2023-04-20T12:45:06.988Z,2.08
2023-04-20T12:46:05.956Z,2.02
2023-04-20T12:47:05.955Z,2.3
2023-04-20T12:48:06.010Z,2.4
2023-04-20T12:49:05.903Z,2.91
2023-04-20T12:50:05.908Z,5.92
2023-04-20T12:51:05.903Z,4.15
2023-04-20T12:52:07.598Z,3.08
2023-04-20T12:53:05.916Z,5.76
2023-04-20T12:54:05.898Z,7.89
2023-04-20T12:55:05.920Z,3.72
2023-04-20T12:56:05.898Z,4.12
2023-04-20T12:57:05.910Z,4.61
2023-04-20T12:58:05.919Z,8.28
2023-04-20T12:59:05.944Z,5.06
2023-04-20T13:00:05.931Z,4.03
2023-04-20T13:01:06.001Z,4.05
2023-04-20T13:02:06.009Z,8.24
2023-04-20T13:03:06.086Z,8.35
2023-04-20T13:04:06.140Z,7.63
2023-04-20T13:05:05.897Z,6.98
2023-04-20T13:06:05.901Z,5.76
2023-04-20T13:07:05.896Z,4.96
2023-04-20T13:08:05.909Z,7.29
2023-04-20T13:09:05.913Z,7.9
2023-04-20T13:10:05.897Z,7.52
2023-04-20T13:11:05.894Z,6.71
2023-04-20T13:12:05.910Z,6.38
2023-04-20T13:13:05.908Z,6.97
2023-04-20T13:14:05.915Z,8.16
2023-04-20T13:15:05.897Z,8.88
2023-04-20T13:16:05.945Z,8.51
2023-04-20T13:17:05.903Z,7.97
2023-04-20T13:18:06.038Z,8.02
2023-04-20T13:19:05.899Z,7.61
2023-04-20T13:20:05.904Z,5.89
2023-04-20T13:21:05.890Z,5.33
2023-04-20T13:22:05.893Z,6.43
2023-04-20T13:23:05.919Z,6.96
2023-04-20T13:24:05.905Z,6.81
2023-04-20T13:25:05.905Z,8.34
2023-04-20T13:26:05.911Z,8.25
2023-04-20T13:27:05.907Z,6.83
2023-04-20T13:28:05.933Z,6.19
2023-04-20T13:29:05.919Z,7.33
2023-04-20T13:30:05.897Z,8.27
2023-04-20T13:31:05.910Z,7.81
2023-04-20T13:32:06.017Z,7.73
2023-04-20T13:33:05.944Z,8.68
2023-04-20T13:34:05.913Z,8.35
2023-04-20T13:35:05.914Z,6.82
2023-04-20T13:36:05.895Z,6.09
2023-04-20T13:37:05.907Z,5.39
2023-04-20T13:38:05.900Z,4.34
2023-04-20T13:39:05.899Z,3.88
2023-04-20T13:40:05.894Z,7.19
2023-04-20T13:41:05.909Z,6.65
2023-04-20T13:42:05.899Z,5.76
2023-04-20T13:43:05.896Z,5.76